Time;durP1;ratioP1;P1;durP2;ratioP2;P2;SDS_P1;SDS_P2;PMS_P1;PMS_P2;Temp;Humidity;BMP_temperature;BMP_pressure;BME280_temperature;BME280_humidity;BME280_pressure;Samples;Min_cycle;Max_cycle;Signal;HPM_P1;HPM_P2
2022/06/23 00:01:46;;;;;;;2.20;2.03;;;20.00;63.70;;;22.62;48.16;101372.22;5096169;28;20219;-61
2022/06/23 00:04:16;;;;;;;3.07;2.33;;;20.00;63.60;;;22.58;48.55;101364.84;5096059;28;20188;-63
2022/06/23 00:06:48;;;;;;;5.70;2.20;;;19.90;64.60;;;22.54;48.36;101369.84;5095342;28;20610;-63
2022/06/23 00:09:38;;;;;;;2.27;2.17;;;19.90;64.10;;;22.48;49.05;101381.56;5095606;28;20189;-63
2022/06/23 00:12:28;;;;;;;2.17;1.97;;;19.90;64.40;;;22.47;49.61;101379.91;5094392;28;20225;-64
2022/06/23 00:15:18;;;;;;;3.37;2.27;;;19.90;64.90;;;22.47;49.44;101379.09;5096284;28;20193;-63
2022/06/23 00:17:56;;;;;;;2.10;1.90;;;19.90;64.90;;;22.46;49.47;101372.94;5096397;28;20276;-63
2022/06/23 00:20:30;;;;;;;2.50;2.30;;;19.80;64.80;;;22.47;49.63;101382.59;5095026;28;20220;-64
2022/06/23 00:23:10;;;;;;;2.87;2.20;;;19.80;65.00;;;22.47;49.56;101390.66;5095652;28;20187;-62
2022/06/23 00:25:45;;;;;;;2.10;1.90;;;19.80;65.00;;;22.50;49.46;101389.34;5095787;28;20188;-64
2022/06/23 00:28:22;;;;;;;2.30;2.10;;;19.80;65.10;;;22.50;49.22;101374.06;5095633;28;20206;-63
2022/06/23 00:30:57;;;;;;;3.10;2.50;;;19.80;65.20;;;22.55;49.81;101378.72;5095220;28;20694;-63
2022/06/23 00:33:30;;;;;;;2.50;2.30;;;19.80;65.40;;;22.56;49.49;101378.47;5095767;28;20238;-63
2022/06/23 00:35:59;;;;;;;2.63;2.43;;;19.80;65.20;;;22.56;49.04;101377.69;5094895;28;20192;-63
2022/06/23 00:38:31;;;;;;;3.20;2.57;;;19.80;65.00;;;22.48;49.30;101373.50;5094810;28;20185;-64
2022/06/23 00:41:00;;;;;;;3.17;2.77;;;19.80;65.30;;;22.43;49.37;101368.03;5095161;28;20213;-64
2022/06/23 00:43:29;;;;;;;2.57;2.40;;;19.70;65.20;;;22.41;49.89;101369.31;5096488;28;20188;-62
2022/06/23 00:46:09;;;;;;;1.90;1.80;;;19.70;66.30;;;22.37;50.09;101362.81;5096193;28;20191;-63
2022/06/23 00:48:46;;;;;;;2.83;2.63;;;19.70;65.60;;;22.39;49.79;101366.88;5096184;28;20185;-64
2022/06/23 00:51:23;;;;;;;2.53;2.30;;;19.70;65.50;;;22.39;49.68;101368.75;5095639;28;20592;-62
2022/06/23 00:53:59;;;;;;;2.73;2.33;;;19.70;65.70;;;22.37;49.88;101366.28;5094931;28;20212;-64
2022/06/23 00:56:46;;;;;;;2.50;2.30;;;19.70;65.70;;;22.35;50.04;101364.88;5094427;28;20203;-62
2022/06/23 00:59:23;;;;;;;3.23;2.73;;;19.70;65.70;;;22.38;50.02;101364.41;5094812;28;20189;-62
2022/06/23 01:01:57;;;;;;;2.70;2.50;;;19.70;65.70;;;22.39;49.99;101374.09;5094860;28;20214;-63
2022/06/23 01:04:35;;;;;;;3.73;2.10;;;19.70;66.40;;;22.40;49.91;101383.78;5094530;28;20203;-62
2022/06/23 01:07:23;;;;;;;2.80;2.60;;;19.70;65.70;;;22.40;50.02;101378.41;5094804;28;20200;-63
2022/06/23 01:09:58;;;;;;;2.57;2.37;;;19.70;65.60;;;22.39;50.13;101388.34;5095334;28;20189;-63
2022/06/23 01:12:36;;;;;;;2.47;2.17;;;19.70;65.70;;;22.40;49.74;101392.66;5093600;28;20240;-62
2022/06/23 01:15:22;;;;;;;2.17;2.07;;;19.70;65.60;;;22.39;49.82;101393.72;5094491;28;20192;-62
2022/06/23 01:17:56;;;;;;;2.60;2.40;;;19.70;65.60;;;22.43;49.65;101391.34;5094394;28;20182;-62
2022/06/23 01:20:36;;;;;;;2.80;2.60;;;19.80;65.70;;;22.43;49.77;101389.50;5093763;28;20188;-63
2022/06/23 01:23:32;;;;;;;3.33;2.60;;;19.80;65.70;;;22.37;49.82;101390.44;5093294;27;20200;-64
2022/06/23 01:26:38;;;;;;;2.97;2.77;;;19.80;65.70;;;22.33;50.00;101388.44;5095089;28;20193;-63
2022/06/23 01:29:16;;;;;;;2.47;2.23;;;19.80;65.70;;;22.37;49.90;101390.44;5073135;28;20181;-63
2022/06/23 01:31:50;;;;;;;2.97;2.77;;;19.80;65.70;;;22.40;49.75;101383.78;5072978;28;20246;-63
2022/06/23 01:34:33;;;;;;;3.07;2.80;;;19.70;65.60;;;22.36;49.73;101378.09;5074208;28;20687;-63
2022/06/23 01:37:08;;;;;;;2.50;2.30;;;19.70;65.60;;;22.35;49.58;101381.81;5074143;28;20197;-63
2022/06/23 01:39:45;;;;;;;3.53;2.73;;;19.70;65.60;;;22.30;49.85;101392.41;5073961;28;20180;-64
2022/06/23 01:42:28;;;;;;;3.00;2.70;;;19.70;65.80;;;22.27;50.00;101384.88;5073708;28;20235;-61
2022/06/23 01:45:05;;;;;;;3.33;3.03;;;19.70;65.90;;;22.28;50.29;101389.16;5093613;28;20192;-63
2022/06/23 01:47:39;;;;;;;2.80;2.60;;;19.70;65.90;;;22.28;49.93;101391.84;5094040;28;20623;-63
2022/06/23 01:50:37;;;;;;;2.97;2.67;;;19.60;65.90;;;22.21;49.95;101385.78;5093744;28;20595;-63
2022/06/23 01:53:26;;;;;;;3.10;2.70;;;19.60;66.00;;;22.21;50.43;101396.53;5091911;28;20228;-62
2022/06/23 01:56:22;;;;;;;3.47;3.17;;;19.60;66.00;;;22.16;49.77;101389.19;5093477;28;20196;-63
2022/06/23 01:59:03;;;;;;;3.93;2.80;;;19.60;65.90;;;22.17;50.13;101390.00;5092488;28;20199;-62
2022/06/23 02:01:43;;;;;;;2.63;2.47;;;19.60;66.00;;;22.13;50.59;101380.81;5093203;28;20215;-62
2022/06/23 02:04:22;;;;;;;4.20;3.50;;;19.50;65.90;;;22.11;50.26;101385.56;5093636;28;20192;-62
2022/06/23 02:06:55;;;;;;;3.43;3.13;;;19.50;66.00;;;22.04;50.46;101393.72;5093265;28;20195;-63
2022/06/23 02:09:32;;;;;;;3.30;2.60;;;19.40;66.20;;;21.98;50.25;101396.53;5093202;28;20192;-61
2022/06/23 02:12:00;;;;;;;3.20;2.90;;;19.40;66.30;;;21.98;50.73;101396.53;5092947;28;20596;-64
2022/06/23 02:14:55;;;;;;;3.67;3.07;;;19.30;66.50;;;21.92;50.94;101397.44;5093213;28;20243;-62
2022/06/23 02:17:44;;;;;;;3.10;2.90;;;19.30;66.80;;;21.90;50.93;101402.22;5073075;28;20200;-63
2022/06/23 02:20:42;;;;;;;3.07;2.77;;;19.30;66.70;;;21.81;50.91;101395.56;5072803;28;20193;-63
2022/06/23 02:23:24;;;;;;;3.83;3.50;;;19.20;66.70;;;21.80;50.71;101393.94;5068322;28;20234;-63
2022/06/23 02:26:00;;;;;;;3.17;2.83;;;19.20;66.90;;;21.79;50.97;101397.66;5081262;28;20230;-64
2022/06/23 02:28:37;;;;;;;3.10;2.90;;;19.10;67.20;;;21.77;51.13;101389.88;5093139;28;20662;-63
2022/06/23 02:31:19;;;;;;;3.10;2.90;;;19.10;67.00;;;21.76;51.33;101398.13;5092552;28;20223;-62
2022/06/23 02:33:58;;;;;;;3.37;3.10;;;19.10;67.30;;;21.76;50.85;101392.75;5092725;28;20277;-63
2022/06/23 02:36:56;;;;;;;3.47;3.17;;;19.10;67.40;;;21.75;50.90;101399.19;5093002;28;20192;-63
2022/06/23 02:39:37;;;;;;;4.30;3.67;;;19.10;67.30;;;21.75;51.37;101396.50;5092509;28;20201;-64
2022/06/23 02:42:20;;;;;;;3.63;3.33;;;19.10;67.10;;;21.71;50.85;101387.28;5092662;28;20253;-64
2022/06/23 02:45:14;;;;;;;3.67;3.37;;;19.00;66.90;;;21.66;51.09;101387.16;5097074;28;20194;-62
2022/06/23 02:48:16;;;;;;;3.70;3.40;;;19.00;67.10;;;21.62;50.99;101383.31;5096966;28;20195;-63
2022/06/23 02:51:08;;;;;;;3.50;3.20;;;19.00;67.40;;;21.59;50.90;101377.38;5096161;28;20249;-63
2022/06/23 02:54:20;;;;;;;3.20;3.00;;;19.00;67.20;;;21.55;51.65;101380.75;5096751;28;20224;-63
2022/06/23 02:57:10;;;;;;;3.00;2.80;;;19.00;67.40;;;21.54;51.28;101382.59;5096209;28;20200;-62
2022/06/23 02:59:45;;;;;;;4.63;3.40;;;19.00;67.40;;;21.57;51.48;101374.09;5096456;28;20192;-64
2022/06/23 03:02:20;;;;;;;4.27;3.97;;;18.90;67.40;;;21.57;50.97;101371.41;5096327;28;20215;-63
2022/06/23 03:04:56;;;;;;;4.33;3.40;;;18.90;68.20;;;21.57;51.46;101382.13;5096745;28;20294;-63
2022/06/23 03:07:34;;;;;;;3.97;3.67;;;18.90;67.20;;;21.54;51.51;101379.91;5096443;28;20195;-64
2022/06/23 03:10:18;;;;;;;6.43;3.60;;;18.90;67.30;;;21.53;51.47;101380.97;5096096;28;20516;-63
2022/06/23 03:12:51;;;;;;;3.63;3.33;;;18.90;67.30;;;21.50;51.55;101380.59;5094340;28;20580;-64
2022/06/23 03:15:25;;;;;;;3.53;3.23;;;18.90;67.40;;;21.48;51.55;101375.50;5096115;28;20192;-62
2022/06/23 03:17:59;;;;;;;3.40;3.10;;;18.80;67.60;;;21.46;51.17;101382.94;5096126;28;20196;-63
2022/06/23 03:20:38;;;;;;;4.17;3.87;;;18.80;67.60;;;21.43;51.28;101375.38;5095700;28;20188;-62
2022/06/23 03:23:20;;;;;;;3.27;3.07;;;18.80;67.50;;;21.43;51.59;101380.72;5095833;28;20188;-64
2022/06/23 03:25:57;;;;;;;3.97;3.30;;;18.80;67.40;;;21.40;51.61;101373.13;5078692;28;20227;-63
2022/06/23 03:28:32;;;;;;;4.57;4.00;;;18.80;67.60;;;21.39;51.02;101371.53;5095920;28;20204;-64
2022/06/23 03:31:07;;;;;;;4.33;3.90;;;18.80;68.10;;;21.36;51.01;101371.97;5095424;28;20208;-63
2022/06/23 03:33:42;;;;;;;4.40;4.00;;;18.70;67.30;;;21.34;51.45;101378.59;5095853;28;20208;-62
2022/06/23 03:36:19;;;;;;;4.33;3.93;;;18.70;67.60;;;21.28;51.23;101377.66;5095575;28;20195;-63
2022/06/23 03:41:49;;;;;;;4.30;4.00;;;18.60;68.00;;;21.20;52.07;101372.63;5095278;28;20646;-63
2022/06/23 03:44:24;;;;;;;5.37;3.63;;;18.50;68.20;;;21.19;52.18;101387.06;5095414;28;20203;-63
2022/06/23 03:46:58;;;;;;;5.30;4.77;;;18.50;68.30;;;21.16;52.26;101382.16;5095688;28;20195;-64
2022/06/23 03:49:46;;;;;;;4.97;4.57;;;18.50;68.40;;;21.09;52.49;101381.44;5095769;28;20184;-63
2022/06/23 03:52:26;;;;;;;4.63;4.23;;;18.50;68.70;;;21.08;52.51;101385.16;5095071;28;20714;-61
2022/06/23 03:55:08;;;;;;;4.93;4.53;;;18.40;68.80;;;21.05;52.49;101382.94;5094474;28;20232;-63
2022/06/23 03:57:44;;;;;;;4.97;4.67;;;18.40;68.80;;;21.04;52.63;101393.84;5095207;28;20668;-62
2022/06/23 04:00:29;;;;;;;4.93;4.50;;;18.30;69.10;;;21.01;53.00;101389.75;5093713;28;20196;-63
2022/06/23 04:03:13;;;;;;;4.70;4.33;;;18.40;69.40;;;21.03;52.77;101393.03;5095194;28;20176;-63
2022/06/23 04:06:18;;;;;;;5.07;4.60;;;18.40;69.50;;;21.01;52.38;101387.09;5095263;28;20192;-63
2022/06/23 04:08:56;;;;;;;4.07;3.77;;;18.40;69.50;;;21.08;52.97;101385.16;5095208;28;20199;-64
2022/06/23 04:11:43;;;;;;;4.80;4.40;;;18.40;69.60;;;21.11;52.88;101390.03;5094903;28;20215;-64
2022/06/23 04:14:30;;;;;;;5.60;4.07;;;18.40;69.50;;;21.12;53.00;101386.34;5095056;28;20544;-64
2022/06/23 04:17:15;;;;;;;4.67;4.27;;;18.40;69.50;;;21.15;52.49;101375.19;5074504;28;20228;-63
2022/06/23 04:19:48;;;;;;;5.20;4.70;;;18.50;69.70;;;21.22;52.53;101381.25;5074666;28;20200;-63
2022/06/23 04:22:24;;;;;;;5.10;4.70;;;18.50;69.50;;;21.25;52.12;101386.13;5074004;28;20216;-62
2022/06/23 04:25:01;;;;;;;6.57;5.03;;;18.50;69.30;;;21.27;52.79;101392.09;5074469;28;20181;-63
2022/06/23 04:27:37;;;;;;;5.07;4.00;;;18.50;69.50;;;21.30;52.34;101393.50;5074410;28;20268;-63
2022/06/23 04:30:17;;;;;;;7.43;5.50;;;18.60;69.80;;;21.33;52.36;101391.16;5074657;28;20204;-63
2022/06/23 04:32:50;;;;;;;5.90;5.27;;;18.60;70.00;;;21.36;52.35;101385.38;5073970;28;20235;-62
2022/06/23 04:35:25;;;;;;;6.30;5.70;;;18.60;70.00;;;21.39;52.76;101392.94;5074570;28;20215;-64
2022/06/23 04:38:03;;;;;;;5.67;5.10;;;18.70;70.30;;;21.42;52.74;101387.13;5074242;28;20557;-63
2022/06/23 04:40:37;;;;;;;4.90;4.50;;;18.70;70.30;;;21.46;53.10;101388.31;5073902;28;20672;-63
2022/06/23 04:43:17;;;;;;;6.13;4.97;;;18.70;70.30;;;21.50;52.66;101389.47;5073968;28;20221;-62
2022/06/23 04:45:55;;;;;;;5.77;5.20;;;18.80;70.40;;;21.54;52.73;101390.63;5073842;28;20192;-63
2022/06/23 04:48:31;;;;;;;5.17;4.67;;;18.80;70.60;;;21.59;52.50;101392.63;5073878;28;20216;-63
2022/06/23 04:51:06;;;;;;;5.30;4.80;;;18.80;70.50;;;21.64;53.10;101400.78;5073783;28;20532;-65
2022/06/23 04:53:52;;;;;;;6.47;5.83;;;18.80;70.40;;;21.69;52.66;101397.41;5072865;28;20226;-62
2022/06/23 04:56:32;;;;;;;6.53;4.77;;;18.90;70.40;;;21.76;52.81;101387.41;5082611;28;20224;-63
2022/06/23 04:59:18;;;;;;;6.73;5.90;;;19.00;70.20;;;21.83;52.73;101388.09;5094011;28;20188;-64
2022/06/23 05:01:50;;;;;;;5.43;4.97;;;19.00;70.10;;;21.86;52.56;101382.31;5093477;28;20215;-62
2022/06/23 05:04:24;;;;;;;7.47;5.60;;;19.10;70.00;;;21.91;52.04;101385.13;5093022;28;20192;-63
2022/06/23 05:06:56;;;;;;;6.10;5.50;;;19.20;70.10;;;21.96;52.75;101388.75;5092872;28;20191;-63
2022/06/23 05:09:33;;;;;;;6.27;5.67;;;19.20;70.20;;;22.02;52.16;101389.66;5093526;28;20571;-65
2022/06/23 05:12:06;;;;;;;5.23;4.83;;;19.20;69.90;;;22.06;52.38;101388.16;5093147;28;20654;-63
2022/06/23 05:14:46;;;;;;;6.10;5.50;;;19.30;69.70;;;22.08;51.84;101386.84;5093587;28;20259;-63
2022/06/23 05:17:20;;;;;;;5.13;4.67;;;19.40;69.80;;;22.14;52.05;101385.09;5093737;28;20288;-64
2022/06/23 05:19:54;;;;;;;5.90;5.30;;;19.40;69.50;;;22.21;51.87;101391.16;5092982;28;20282;-64
2022/06/23 05:22:30;;;;;;;8.57;6.33;;;19.50;69.60;;;22.24;51.89;101393.38;5093360;28;20212;-64
2022/06/23 05:25:27;;;;;;;6.50;5.93;;;19.50;69.50;;;22.25;51.88;101381.56;5093920;28;20238;-62
2022/06/23 05:27:55;;;;;;;6.67;6.00;;;19.60;69.40;;;22.34;51.51;101382.88;5093510;28;20200;-62
2022/06/23 05:30:30;;;;;;;6.77;6.10;;;19.60;69.10;;;22.37;51.84;101382.38;5093191;28;20191;-63
2022/06/23 05:33:11;;;;;;;6.13;5.60;;;19.70;69.10;;;22.40;51.81;101373.88;5092810;28;20534;-62
2022/06/23 05:35:45;;;;;;;5.73;5.23;;;19.80;68.80;;;22.43;51.46;101376.09;5092753;28;20227;-63
2022/06/23 05:38:27;;;;;;;9.63;5.23;;;19.80;68.60;;;22.47;51.31;101368.34;5092545;28;20193;-63
2022/06/23 05:40:58;;;;;;;6.97;6.30;;;19.80;68.40;;;22.56;51.43;101378.47;5092445;28;20204;-62
2022/06/23 05:43:27;;;;;;;6.60;5.87;;;19.90;68.30;;;22.59;50.86;101380.69;5093008;28;20574;-63
2022/06/23 05:46:00;;;;;;;7.10;6.27;;;19.90;68.00;;;22.65;50.98;101382.47;5092940;28;20189;-62
2022/06/23 05:48:34;;;;;;;5.70;5.10;;;20.00;68.20;;;22.74;50.94;101385.59;5092523;28;20682;-63
2022/06/23 05:51:12;;;;;;;10.33;5.70;;;20.00;67.90;;;22.82;50.65;101388.69;5092213;28;20236;-61
2022/06/23 05:53:50;;;;;;;9.77;7.13;;;20.10;67.90;;;22.80;50.67;101390.81;5092684;28;20263;-62
2022/06/23 05:56:26;;;;;;;7.83;7.00;;;20.10;67.60;;;22.81;50.79;101389.78;5092663;28;20561;-62
2022/06/23 05:59:02;;;;;;;8.20;5.80;;;20.20;67.50;;;22.85;50.59;101390.09;5092893;28;20673;-63
2022/06/23 06:01:37;;;;;;;8.57;6.37;;;20.20;67.40;;;22.95;50.68;101386.78;5092393;28;20212;-64
2022/06/23 06:04:16;;;;;;;9.60;6.33;;;20.30;67.70;;;23.01;50.32;101385.84;5092609;28;20646;-64
2022/06/23 06:06:45;;;;;;;9.30;6.63;;;20.30;67.60;;;23.09;50.47;101388.94;5092499;28;20203;-63
2022/06/23 06:09:36;;;;;;;6.57;5.83;;;20.40;67.40;;;23.19;49.97;101389.13;5092700;28;20192;-63
2022/06/23 06:12:11;;;;;;;7.30;5.53;;;20.50;67.30;;;23.32;50.08;101396.09;5090953;28;20732;-64
2022/06/23 06:14:44;;;;;;;13.33;6.70;;;20.60;67.20;;;23.42;50.18;101386.34;5092680;28;20625;-63
2022/06/23 06:17:21;;;;;;;8.23;6.50;;;20.60;67.40;;;23.51;49.80;101384.88;5093940;28;20185;-63
2022/06/23 06:19:51;;;;;;;9.43;8.50;;;20.80;67.20;;;23.63;49.63;101392.84;5096989;28;20202;-62
2022/06/23 06:22:46;;;;;;;7.67;6.23;;;20.90;66.90;;;23.72;49.35;101394.09;5096210;28;20273;-62
2022/06/23 06:25:26;;;;;;;8.23;6.13;;;21.00;66.70;;;23.87;49.11;101385.44;5096261;28;20192;-63
2022/06/23 06:27:57;;;;;;;5.90;5.40;;;21.10;66.40;;;24.00;48.77;101379.72;5096487;28;20235;-63
2022/06/23 06:30:39;;;;;;;9.20;5.93;;;21.20;66.00;;;24.09;48.76;101387.16;5096036;28;20552;-64
2022/06/23 06:33:33;;;;;;;7.00;5.70;;;21.30;65.80;;;24.20;48.23;101378.16;5096327;28;20602;-63
2022/06/23 06:36:01;;;;;;;8.20;4.93;;;21.40;65.10;;;24.30;48.05;101384.72;5096537;28;20220;-64
2022/06/23 06:38:30;;;;;;;5.47;4.97;;;21.60;64.30;;;24.35;47.51;101376.72;5094013;28;20196;-63
2022/06/23 06:40:59;;;;;;;6.23;5.50;;;21.60;64.00;;;24.32;48.01;101377.25;5095682;28;20215;-62
2022/06/23 06:43:32;;;;;;;11.03;5.33;;;21.70;63.50;;;24.39;47.25;101372.50;5095525;28;20197;-64
2022/06/23 06:45:59;;;;;;;6.23;5.63;;;21.80;63.40;;;24.42;47.19;101369.28;5095806;28;20565;-63
2022/06/23 06:48:35;;;;;;;7.00;5.83;;;21.90;63.10;;;24.45;47.37;101374.16;5111403;28;20627;-63
2022/06/23 06:51:10;;;;;;;6.07;5.40;;;22.00;62.70;;;24.51;47.13;101370.50;5095453;28;20219;-63
2022/06/23 06:53:43;;;;;;;6.30;5.57;;;22.00;62.70;;;24.65;47.00;101371.72;5095839;28;20576;-63
2022/06/23 06:56:19;;;;;;;8.77;5.57;;;22.10;62.00;;;24.78;45.96;101365.97;5095729;28;20686;-63
2022/06/23 06:58:56;;;;;;;6.53;4.93;;;22.20;61.50;;;24.89;45.96;101367.69;5095925;28;20185;-62
2022/06/23 07:01:25;;;;;;;5.17;4.77;;;22.30;60.80;;;24.98;45.92;101368.91;5095371;28;20203;-62
2022/06/23 07:03:56;;;;;;;5.77;5.20;;;22.40;60.90;;;25.09;45.49;101365.22;5095442;28;20220;-62
2022/06/23 07:06:36;;;;;;;7.80;5.60;;;22.50;61.20;;;25.25;45.54;101367.00;5095716;28;20275;-61
2022/06/23 07:09:14;;;;;;;5.53;4.77;;;22.60;61.20;;;25.46;45.58;101371.50;5095255;28;20192;-63
2022/06/23 07:11:48;;;;;;;8.13;5.73;;;22.70;61.00;;;25.63;45.11;101368.69;5094920;28;20208;-62
2022/06/23 07:14:26;;;;;;;5.47;5.03;;;22.90;60.10;;;25.76;44.31;101367.44;5094954;28;20216;-64
2022/06/23 07:17:00;;;;;;;5.13;4.63;;;23.00;59.40;;;25.86;43.59;101373.72;5095711;28;20188;-63
2022/06/23 07:19:36;;;;;;;5.40;4.63;;;23.20;59.20;;;26.01;43.32;101371.09;5095058;28;20192;-62
2022/06/23 07:22:21;;;;;;;6.40;4.97;;;23.30;58.90;;;26.14;42.64;101369.84;5095014;28;20216;-63
2022/06/23 07:24:57;;;;;;;4.83;4.10;;;23.40;58.90;;;26.23;42.10;101362.06;5095715;28;20218;-63
2022/06/23 07:27:35;;;;;;;6.13;4.27;;;23.50;57.40;;;26.30;41.70;101366.16;5092245;27;20208;-62
2022/06/23 07:30:11;;;;;;;5.67;5.07;;;23.60;56.80;;;26.36;42.07;101373.22;5090318;28;20192;-64
2022/06/23 07:32:48;;;;;;;6.80;5.17;;;23.70;56.60;;;26.44;41.81;101371.88;5086067;28;20207;-62
2022/06/23 07:35:40;;;;;;;6.00;4.30;;;23.80;56.40;;;26.48;41.94;101357.56;5087135;28;20212;-65
2022/06/23 07:38:16;;;;;;;4.43;3.80;;;23.90;56.40;;;26.58;41.25;101363.03;5086892;28;20176;-64
2022/06/23 07:40:51;;;;;;;6.93;4.83;;;24.00;55.90;;;26.69;41.19;101350.38;5085607;28;20587;-64
2022/06/23 07:43:27;;;;;;;5.63;4.27;;;24.10;55.50;;;26.82;41.29;101345.28;5084790;28;20196;-63
2022/06/23 07:45:58;;;;;;;5.03;3.77;;;24.20;55.70;;;26.94;40.46;101346.94;5085855;28;20204;-63
2022/06/23 07:48:29;;;;;;;5.40;4.27;;;24.30;54.90;;;27.09;40.11;101355.88;5084910;28;20257;-60
2022/06/23 07:51:01;;;;;;;4.73;3.60;;;24.40;54.70;;;27.09;38.86;101355.88;5086063;28;20288;-64
2022/06/23 07:53:39;;;;;;;5.23;3.97;;;24.50;52.60;;;27.18;39.20;101342.63;5086487;28;20231;-64
2022/06/23 07:56:11;;;;;;;4.83;3.83;;;24.60;52.70;;;27.29;39.33;101336.16;5086117;28;20224;-63
2022/06/23 07:58:44;;;;;;;5.67;4.07;;;24.70;52.90;;;27.43;38.82;101339.97;5086569;28;20193;-63
2022/06/23 08:01:18;;;;;;;9.57;3.93;;;24.80;52.80;;;27.49;37.89;101338.88;5085296;28;20219;-64
2022/06/23 08:04:01;;;;;;;4.37;3.90;;;24.90;51.30;;;27.53;38.03;101338.06;5086514;28;20192;-62
2022/06/23 08:06:31;;;;;;;4.90;4.03;;;24.90;51.50;;;27.66;37.93;101344.81;5086498;28;20522;-62
2022/06/23 08:09:07;;;;;;;4.00;3.60;;;25.10;51.40;;;27.77;37.95;101343.72;5085972;28;20196;-62
2022/06/23 08:14:41;;;;;;;4.40;4.00;;;25.20;51.10;;;28.09;36.99;101343.41;5085907;28;20212;-62
2022/06/23 08:17:14;;;;;;;5.43;4.83;;;25.40;50.60;;;28.21;36.67;101334.97;5086460;28;20211;-64
2022/06/23 08:19:49;;;;;;;4.27;3.80;;;25.50;50.00;;;28.53;35.63;101344.28;5085824;28;20196;-62
2022/06/23 08:22:24;;;;;;;5.77;3.70;;;25.60;48.70;;;29.34;33.90;101341.09;5084965;28;20721;-64
2022/06/23 08:25:06;;;;;;;5.67;3.77;;;25.90;47.20;;;30.70;32.69;101339.59;5085670;28;20264;-64
2022/06/23 08:27:52;;;;;;;5.23;2.80;;;26.40;46.80;;;32.14;29.89;101342.06;5085790;28;20205;-63
2022/06/23 08:30:24;;;;;;;4.07;3.10;;;27.20;44.50;;;33.59;28.18;101333.56;5085770;28;20189;-62
2022/06/23 08:32:55;;;;;;;3.30;3.00;;;28.00;43.70;;;34.77;26.31;101336.16;5085136;28;20221;-62
2022/06/23 08:35:31;;;;;;;3.47;2.97;;;28.80;41.00;;;35.87;24.93;101331.63;5085618;28;20213;-64
2022/06/23 08:38:06;;;;;;;5.57;2.87;;;29.80;39.40;;;36.79;22.35;101336.09;5085245;28;20199;-63
2022/06/23 08:40:51;;;;;;;3.03;2.83;;;30.50;35.20;;;37.30;22.05;101332.84;5084917;28;20191;-65
2022/06/23 08:43:30;;;;;;;4.67;3.40;;;31.30;33.40;;;37.94;21.61;101332.31;5084925;28;20200;-63
2022/06/23 08:46:12;;;;;;;4.63;3.13;;;32.00;33.20;;;38.63;20.71;101327.41;5085837;28;20759;-63
2022/06/23 08:48:50;;;;;;;3.88;3.40;;;32.50;31.10;;;39.01;19.69;101323.38;5084477;28;20196;-63
2022/06/23 08:51:27;;;;;;;5.25;3.20;;;33.00;29.90;;;39.24;20.31;101327.19;5083593;28;20218;-64
2022/06/23 08:54:11;;;;;;;3.22;2.92;;;33.40;30.00;;;39.96;19.65;101322.31;5084857;28;20220;-64
2022/06/23 08:56:51;;;;;;;3.30;3.00;;;33.90;29.40;;;40.56;19.22;101318.97;5081629;28;20223;-65
2022/06/23 08:59:29;;;;;;;3.30;3.00;;;34.40;28.90;;;40.99;18.21;101321.47;5084838;28;20238;-64
2022/06/23 09:02:09;;;;;;;3.63;3.33;;;34.90;28.80;;;41.27;18.04;101317.63;5085041;28;20219;-64
2022/06/23 09:04:53;;;;;;;3.53;3.08;;;35.20;27.90;;;41.92;17.34;101315.59;5082577;28;20275;-65
2022/06/23 09:07:40;;;;;;;4.70;2.75;;;35.70;27.10;;;42.26;16.88;101312.56;5085030;28;20192;-60
2022/06/23 09:10:30;;;;;;;3.55;3.17;;;36.00;26.70;;;42.91;16.40;101312.22;5081905;28;20212;-62
2022/06/23 09:13:10;;;;;;;3.88;2.90;;;36.40;25.60;;;43.37;15.86;101299.63;5083877;28;20193;-61
2022/06/23 09:16:16;;;;;;;3.67;3.08;;;36.80;25.20;;;43.71;15.63;101312.22;5082134;28;20204;-63
2022/06/23 09:19:14;;;;;;;6.07;3.83;;;37.20;25.00;;;44.18;15.75;101310.56;5084628;28;20212;-63
2022/06/23 09:22:30;;;;;;;2.83;2.72;;;37.60;24.60;;;44.11;14.61;101316.06;5083661;28;20685;-61
2022/06/23 09:25:11;;;;;;;6.00;2.97;;;37.70;22.90;;;43.94;15.07;101311.16;5084382;28;20200;-64
2022/06/23 09:28:13;;;;;;;4.57;3.03;;;37.90;23.70;;;43.96;14.79;101314.38;5084365;28;20211;-65
2022/06/23 09:30:56;;;;;;;2.78;2.58;;;38.00;23.20;;;44.16;14.75;101301.81;5084162;28;20246;-62
2022/06/23 09:34:01;;;;;;;3.75;3.00;;;38.10;22.90;;;44.22;14.98;101305.81;5085150;28;20180;-62
2022/06/23 09:37:10;;;;;;;5.53;3.13;;;38.20;23.10;;;43.97;14.73;101305.66;5083648;28;20561;-63
2022/06/23 09:40:17;;;;;;;5.97;2.85;;;38.20;23.20;;;44.24;14.62;101297.91;5083844;28;20192;-62
2022/06/23 09:43:28;;;;;;;3.80;2.88;;;38.20;23.10;;;44.44;14.10;101301.94;5079297;28;20221;-65
2022/06/23 09:46:44;;;;;;;3.75;2.65;;;38.30;22.70;;;44.33;14.22;101309.44;5073866;28;20200;-63
2022/06/23 09:49:33;;;;;;;4.25;3.17;;;38.40;22.50;;;44.54;13.86;101306.78;5026599;28;20301;-65
2022/06/23 09:52:47;;;;;;;3.05;2.75;;;38.50;22.70;;;44.13;14.07;101302.59;5082423;28;20217;-61
2022/06/23 09:55:50;;;;;;;6.63;2.97;;;38.20;21.70;;;44.19;14.38;101299.06;5083897;28;20208;-66
2022/06/23 09:58:57;;;;;;;3.13;2.92;;;38.30;22.00;;;44.38;13.70;101292.41;5084363;28;20252;-63
2022/06/23 10:01:45;;;;;;;3.67;2.88;;;38.40;22.10;;;44.54;13.94;101292.88;5083141;28;20212;-62
2022/06/23 10:04:32;;;;;;;3.17;2.90;;;38.40;21.80;;;44.72;13.59;101290.94;5083337;28;20835;-62
2022/06/23 10:07:33;;;;;;;4.70;3.53;;;38.50;21.50;;;45.15;13.61;101280.72;5083692;28;20188;-63
2022/06/23 10:10:25;;;;;;;2.83;2.60;;;38.70;21.60;;;45.46;12.44;101279.94;5084222;28;20199;-64
2022/06/23 10:13:17;;;;;;;3.53;2.75;;;38.90;20.90;;;45.63;12.08;101275.59;5083112;28;20231;-62
2022/06/23 10:16:15;;;;;;;2.65;2.45;;;39.00;20.50;;;45.50;11.99;101268.81;5083117;28;20197;-62
2022/06/23 10:19:06;;;;;;;3.42;3.10;;;39.10;20.10;;;45.97;12.51;101271.16;5083474;28;20196;-61
2022/06/23 10:22:02;;;;;;;3.08;2.55;;;39.30;20.60;;;46.63;11.95;101269.28;5083262;28;20216;-61
2022/06/23 10:24:53;;;;;;;4.28;3.60;;;39.50;20.50;;;47.13;11.63;101264.22;5083100;28;20202;-63
2022/06/23 10:27:45;;;;;;;3.83;2.90;;;39.90;20.20;;;47.41;11.42;101269.53;5082025;28;20550;-61
2022/06/23 10:30:20;;;;;;;2.33;2.03;;;40.20;19.60;;;47.19;10.97;101267.38;5081017;28;20279;-63
2022/06/23 10:33:51;;;;;;;2.85;2.65;;;40.20;18.50;;;47.32;11.43;101260.84;5083398;28;20616;-60
2022/06/23 10:36:41;;;;;;;2.88;2.20;;;40.40;18.70;;;47.41;11.28;101258.38;5067971;28;20278;-62
2022/06/23 10:39:42;;;;;;;3.78;2.63;;;40.50;18.90;;;46.93;10.82;101263.94;5083139;28;20220;-64
2022/06/23 10:42:47;;;;;;;2.95;2.67;;;40.40;18.00;;;46.32;11.62;101254.31;5083829;28;20220;-60
2022/06/23 10:45:41;;;;;;;6.60;3.05;;;40.40;19.00;;;45.58;12.05;101264.81;5083452;28;20184;-62
2022/06/23 10:49:01;;;;;;;2.50;2.30;;;40.20;18.90;;;44.35;12.93;101248.72;5081924;28;20317;-63
2022/06/23 10:51:56;;;;;;;4.65;2.78;;;40.00;19.50;;;43.13;13.82;101253.00;5064598;28;20232;-64
2022/06/23 10:54:48;;;;;;;5.68;2.97;;;39.60;19.60;;;41.80;14.80;101248.22;5083195;28;20199;-61
2022/06/23 10:57:49;;;;;;;4.95;3.05;;;39.10;20.10;;;40.88;15.59;101242.28;5083476;28;20291;-62
2022/06/23 11:00:20;;;;;;;2.72;2.50;;;38.40;20.40;;;40.40;15.59;101235.38;5083326;28;20206;-63
2022/06/23 11:03:26;;;;;;;3.78;2.78;;;37.90;20.70;;;40.20;16.15;101231.81;5083076;28;20577;-61
2022/06/23 11:06:30;;;;;;;2.63;2.42;;;37.40;21.20;;;39.99;16.52;101222.28;5087022;28;20210;-63
2022/06/23 11:09:35;;;;;;;3.35;3.05;;;37.10;22.00;;;39.61;16.40;101223.78;5089854;28;20252;-63
2022/06/23 11:12:25;;;;;;;3.22;2.95;;;36.70;22.20;;;39.32;16.69;101221.47;5086145;28;20250;-62
2022/06/23 11:15:10;;;;;;;3.97;2.92;;;36.50;22.00;;;39.71;16.45;101234.25;5085286;28;20679;-62
2022/06/23 11:17:57;;;;;;;3.53;2.60;;;36.30;22.50;;;40.58;15.51;101222.78;5085265;28;20224;-61
2022/06/23 11:20:42;;;;;;;3.60;3.30;;;36.20;23.00;;;41.22;15.06;101218.41;5087544;28;20192;-62